Overview Statistics Trail Chart Weather Telemetry Raw packets
 

This is the latest recevied weather packets stored in our database for station/object DG1GMY-10. If no packets are shown the sender has not sent any weather packets the latest 10 day(s).

<< 1 2 3 4 5 6 >>
Time Temp. Humidity Pressure Rain* Wind** Luminosity Snow
1788449809 29.44° C 35% 1022.2 hPa - - - -
1788446209 32.78° C 31% 1022.7 hPa - - - -
1788442609 33.89° C 28% 1023 hPa - - - -
1788439009 28.89° C 36% 1023.6 hPa - - - -
1788435409 27.22° C 38% 1023.2 hPa - - - -
1788431809 25.56° C 43% 1024.4 hPa - - - -
1788428208 23.33° C 50% 1024.5 hPa - - - -
1788424608 21.11° C 63% 1024.9 hPa - - - -
1788421008 18.33° C 83% 1024.8 hPa - - - -
1788417408 15.56° C 100% 1024.7 hPa - - - -
1788413808 13.89° C 100% 1024.7 hPa - - - -
1788410208 14.44° C 100% 1024.2 hPa - - - -
1788406608 15° C 95% 1024.3 hPa - - - -
1788403008 15° C 97% 1024.3 hPa - - - -
1788399408 15° C 100% 1024.4 hPa - - - -
1788395807 15.56° C 94% 1024.2 hPa - - - -
1788392207 16.11° C 93% 1024.4 hPa - - - -
1788388607 16.67° C 87% 1024.2 hPa - - - -
1788385007 17.78° C 76% 1023.9 hPa - - - -
1788381407 18.33° C 70% 1023.6 hPa - - - -
1788377807 19.44° C 67% 1023.3 hPa - - - -
1788374207 21.11° C 57% 1022.9 hPa - - - -
1788370607 26.11° C 42% 1022.2 hPa - - - -
1788367007 31.11° C 29% 1021.9 hPa - - - -
1788363406 32.22° C 31% 1022.1 hPa - - - -

* Rain since midnight (hover to see other rain measurements)
** Current wind speed in m/s (hover to see current wind gust speed)